Open Full Screen Window  High Contrast Mode
Wind Gusting 00 knots
08
December 02, 2016 4:13 PM CST
Weather Information
Wind Direction
  260 °
Wind Speed
  08 kt (9 mph)
Wind Gust
  00 kt (0 mph)
Altimeter
30.20 in
Visibility
10 SM
Temperature
03° C
37° F
Dewpoint
01° C
34° F
Humidity
87%
Sky Condition
Overcast @ 4,300 ft
VFR

METAR KAXV 022213Z AUTO 26008KT 10SM OVC043 03/01 A3020 RMK AO2

*Background is not an actual portrayal of the airport.